Time;durP1;ratioP1;P1;durP2;ratioP2;P2;SDS_P1;SDS_P2;PMS_P1;PMS_P2;Temp;Humidity;BMP_temperature;BMP_pressure;BME280_temperature;BME280_humidity;BME280_pressure;Samples;Min_cycle;Max_cycle;Signal;HPM_P1;HPM_P2
2021/08/15 00:02:18;;;;;;;8.83;5.70;;;;;;;17.75;75.00;100507.66;5051949;28;20201;-79
2021/08/15 00:04:44;;;;;;;9.07;5.33;;;;;;;17.83;75.85;100480.88;5050848;28;20240;-79
2021/08/15 00:07:12;;;;;;;11.33;6.10;;;;;;;17.93;75.42;100489.25;5051345;28;20270;-81
2021/08/15 00:09:39;;;;;;;6.90;5.37;;;;;;;17.96;74.84;100513.72;5050229;28;21148;-80
2021/08/15 00:12:06;;;;;;;5.57;5.07;;;;;;;18.00;74.71;100514.44;5050182;28;20269;-80
2021/08/15 00:14:33;;;;;;;6.13;5.30;;;;;;;18.05;74.18;100544.09;5050138;28;20630;-80
2021/08/15 00:17:00;;;;;;;10.40;5.27;;;;;;;17.98;74.89;100518.94;5049946;28;20255;-81
2021/08/15 00:19:26;;;;;;;8.30;6.00;;;;;;;17.97;75.16;100504.84;5049831;28;20725;-79
2021/08/15 00:21:53;;;;;;;6.67;5.20;;;;;;;17.85;75.20;100508.94;5050438;28;20214;-82
2021/08/15 00:24:21;;;;;;;6.10;5.07;;;;;;;17.87;74.93;100514.16;5049608;28;20301;-80
2021/08/15 00:26:47;;;;;;;8.73;5.70;;;;;;;17.71;75.31;100502.59;5050540;28;20240;-79
2021/08/15 00:29:14;;;;;;;7.50;5.97;;;;;;;17.73;75.06;100520.06;5050459;28;20219;-79
2021/08/15 00:31:40;;;;;;;9.20;6.07;;;;;;;17.68;75.37;100498.31;5050939;28;20219;-80
2021/08/15 00:34:07;;;;;;;5.90;5.30;;;;;;;17.72;76.11;100481.41;5051055;28;20247;-79
2021/08/15 00:36:33;;;;;;;7.13;4.97;;;;;;;17.76;75.95;100493.53;5051050;28;20204;-81
2021/08/15 00:38:59;;;;;;;9.40;5.20;;;;;;;17.65;75.68;100517.78;5051283;28;20209;-80
2021/08/15 00:41:28;;;;;;;8.20;5.50;;;;;;;17.61;75.28;100502.16;5051230;28;20708;-79
2021/08/15 00:43:54;;;;;;;9.50;6.23;;;;;;;17.60;75.37;100519.81;5050659;28;20621;-80
2021/08/15 00:46:21;;;;;;;10.43;7.00;;;;;;;17.57;74.44;100543.69;5050856;28;20755;-80
2021/08/15 00:48:47;;;;;;;8.23;6.43;;;;;;;17.58;75.05;100532.22;5050864;28;20204;-80
2021/08/15 00:51:14;;;;;;;7.77;5.40;;;;;;;17.61;76.04;100497.75;5050251;28;20200;-80
2021/08/15 00:53:40;;;;;;;8.63;7.03;;;;;;;17.56;75.09;100515.59;5050440;28;20623;-80
2021/08/15 00:56:08;;;;;;;13.63;5.80;;;;;;;17.51;77.34;100459.50;5050328;28;20736;-80
2021/08/15 00:58:37;;;;;;;11.07;5.97;;;;;;;17.55;77.10;100462.88;5050277;28;20213;-81
2021/08/15 01:01:04;;;;;;;9.17;5.77;;;;;;;17.56;76.91;100473.38;5050185;28;20269;-80
2021/08/15 01:03:31;;;;;;;7.83;6.73;;;;;;;17.46;74.98;100490.53;5050476;28;20216;-80
2021/08/15 01:05:58;;;;;;;7.70;5.60;;;;;;;17.37;75.68;100518.22;5049728;28;20207;-81
2021/08/15 01:08:25;;;;;;;6.93;5.90;;;;;;;17.48;76.51;100470.19;5050399;28;20208;-81
2021/08/15 01:10:52;;;;;;;9.73;5.47;;;;;;;17.54;76.27;100476.97;5049883;28;20208;-80
2021/08/15 01:13:18;;;;;;;9.23;5.83;;;;;;;17.52;76.31;100484.13;5049286;28;20227;-80
2021/08/15 01:15:46;;;;;;;6.80;5.50;;;;;;;17.46;76.52;100472.94;5048851;28;20205;-79
2021/08/15 01:18:21;;;;;;;8.03;5.93;;;;;;;17.49;76.65;100482.50;5049018;28;20210;-80
2021/08/15 01:20:48;;;;;;;7.13;5.70;;;;;;;17.42;76.38;100478.41;5049478;28;20265;-79
2021/08/15 01:23:15;;;;;;;8.87;5.47;;;;;;;17.42;76.59;100479.28;5049431;28;20220;-81
2021/08/15 01:25:41;;;;;;;6.20;5.27;;;;;;;17.40;76.65;100457.41;5048889;28;20334;-81
2021/08/15 01:28:15;;;;;;;6.87;5.30;;;;;;;17.38;76.57;100463.66;5048677;28;20216;-80
2021/08/15 01:30:42;;;;;;;5.83;5.23;;;;;;;17.42;76.48;100466.09;5051527;28;20219;-79
2021/08/15 01:33:10;;;;;;;7.20;5.60;;;;;;;17.42;76.21;100476.66;5053718;28;20254;-80
2021/08/15 01:35:37;;;;;;;7.10;5.30;;;;;;;17.42;76.36;100478.41;5052862;28;20291;-79
2021/08/15 01:38:03;;;;;;;7.03;5.53;;;;;;;17.35;75.85;100492.84;5052700;28;20203;-80
2021/08/15 01:40:30;;;;;;;6.47;5.30;;;;;;;17.35;76.24;100488.41;5052712;28;20204;-80
2021/08/15 01:42:56;;;;;;;6.13;5.50;;;;;;;17.31;75.79;100497.41;5052497;28;20280;-79
2021/08/15 01:45:24;;;;;;;6.30;5.30;;;;;;;17.33;75.95;100478.88;5051857;28;20209;-79
2021/08/15 01:47:50;;;;;;;6.20;5.43;;;;;;;17.36;75.66;100491.91;5052862;28;20207;-79
2021/08/15 01:50:17;;;;;;;5.97;5.27;;;;;;;17.33;75.98;100477.06;5052502;28;20208;-81
2021/08/15 01:52:43;;;;;;;5.43;4.93;;;;;;;17.32;76.03;100474.50;5052733;28;20299;-80
2021/08/15 01:55:11;;;;;;;6.10;5.30;;;;;;;17.22;76.38;100453.84;5052991;28;20634;-79
2021/08/15 01:57:37;;;;;;;5.93;5.30;;;;;;;17.22;76.43;100460.88;5052206;28;20215;-81
2021/08/15 02:00:06;;;;;;;10.00;5.87;;;;;;;17.23;76.78;100439.69;5052513;28;20203;-79
2021/08/15 02:02:33;;;;;;;7.63;5.27;;;;;;;17.24;76.39;100446.72;5050888;28;20634;-80
2021/08/15 02:05:00;;;;;;;5.10;4.60;;;;;;;17.26;76.33;100460.69;5050868;28;20203;-80
2021/08/15 02:07:26;;;;;;;8.13;5.40;;;;;;;17.26;76.60;100449.25;5053396;28;20209;-80
2021/08/15 02:09:53;;;;;;;9.63;5.67;;;;;;;17.22;76.44;100451.19;5052786;28;20619;-80
2021/08/15 02:12:19;;;;;;;6.43;5.03;;;;;;;17.21;76.56;100449.47;5051963;28;20201;-81
2021/08/15 02:14:45;;;;;;;6.77;5.73;;;;;;;17.16;76.85;100435.63;5051312;28;20216;-81
2021/08/15 02:17:12;;;;;;;8.03;5.77;;;;;;;17.19;76.69;100437.28;5052218;28;20727;-80
2021/08/15 02:19:39;;;;;;;7.07;5.73;;;;;;;17.16;76.95;100426.88;5051867;28;20889;-79
2021/08/15 02:22:06;;;;;;;8.10;5.97;;;;;;;17.17;77.12;100413.63;5052713;28;20216;-80
2021/08/15 02:24:32;;;;;;;7.60;5.40;;;;;;;17.18;77.38;100407.41;5053193;28;20285;-81
2021/08/15 02:26:59;;;;;;;8.17;6.00;;;;;;;17.21;77.53;100403.78;5053735;28;20207;-81
2021/08/15 02:29:25;;;;;;;8.70;5.57;;;;;;;17.18;78.17;100398.63;5053213;28;20204;-80
2021/08/15 02:31:52;;;;;;;7.83;6.37;;;;;;;17.17;78.26;100381.13;5052607;28;21197;-79
2021/08/15 02:34:19;;;;;;;8.53;6.23;;;;;;;17.22;77.99;100400.19;5052544;28;20692;-81
2021/08/15 02:36:47;;;;;;;8.20;6.03;;;;;;;17.24;78.23;100386.03;5052484;28;20215;-79
2021/08/15 02:39:13;;;;;;;6.17;5.57;;;;;;;17.27;77.60;100412.25;5053705;28;20629;-80
2021/08/15 02:41:40;;;;;;;7.43;5.97;;;;;;;17.19;77.47;100424.09;5051391;28;20573;-79
2021/08/15 02:44:07;;;;;;;8.30;6.07;;;;;;;17.12;77.72;100415.59;5053309;28;20222;-80
2021/08/15 02:46:33;;;;;;;10.97;5.53;;;;;;;17.12;77.76;100407.69;5053203;28;20208;-79
2021/08/15 02:49:00;;;;;;;11.50;5.30;;;;;;;17.06;77.38;100416.72;5052781;28;20205;-79
2021/08/15 02:51:26;;;;;;;8.50;5.50;;;;;;;17.04;77.61;100401.91;5052960;28;20203;-81
2021/08/15 02:53:54;;;;;;;6.80;6.10;;;;;;;17.06;77.58;100408.81;5052576;28;20290;-80
2021/08/15 02:56:21;;;;;;;8.47;5.77;;;;;;;17.04;77.52;100410.69;5053327;28;20258;-79
2021/08/15 02:58:47;;;;;;;7.07;5.70;;;;;;;17.05;77.56;100412.41;5053195;28;20216;-81
2021/08/15 03:01:14;;;;;;;7.50;6.00;;;;;;;17.05;77.49;100422.09;5051608;28;20258;-80
2021/08/15 03:03:40;;;;;;;7.50;5.67;;;;;;;17.07;77.09;100428.16;5051857;28;20232;-79
2021/08/15 03:06:07;;;;;;;6.17;5.20;;;;;;;16.97;77.36;100417.19;5052439;28;20204;-79
2021/08/15 03:08:33;;;;;;;9.70;5.93;;;;;;;16.91;77.45;100416.59;5052731;28;20216;-80
2021/08/15 03:11:01;;;;;;;6.80;6.10;;;;;;;16.87;77.72;100402.72;5053017;28;20263;-80
2021/08/15 03:13:27;;;;;;;6.53;5.87;;;;;;;16.86;77.44;100420.28;5051541;28;20283;-80
2021/08/15 03:15:54;;;;;;;8.60;6.20;;;;;;;16.85;77.74;100399.28;5052538;28;20212;-79
2021/08/15 03:18:20;;;;;;;6.60;6.00;;;;;;;16.79;77.96;100397.75;5051783;28;20250;-79
2021/08/15 03:20:47;;;;;;;6.47;5.73;;;;;;;16.72;77.83;100390.19;5051369;28;20800;-79
2021/08/15 03:23:13;;;;;;;6.67;5.50;;;;;;;16.68;77.73;100389.47;5051576;28;20235;-80
2021/08/15 03:25:40;;;;;;;7.40;5.93;;;;;;;16.68;77.72;100392.09;5052436;28;20265;-79
2021/08/15 03:28:08;;;;;;;6.63;5.47;;;;;;;16.67;78.11;100379.84;5052200;28;20253;-79
2021/08/15 03:30:35;;;;;;;6.33;5.30;;;;;;;16.67;77.92;100382.50;5051689;28;20345;-79
2021/08/15 03:33:02;;;;;;;6.30;5.50;;;;;;;16.63;77.00;100412.53;5050688;28;20238;-79
2021/08/15 03:35:28;;;;;;;6.57;5.83;;;;;;;16.65;76.58;100437.06;5051579;28;20202;-80
2021/08/15 03:37:54;;;;;;;7.47;6.83;;;;;;;16.60;75.69;100470.66;5051814;28;20209;-80
2021/08/15 03:40:21;;;;;;;6.43;5.90;;;;;;;16.46;75.78;100458.91;5051574;28;20207;-80
2021/08/15 03:42:47;;;;;;;8.17;7.10;;;;;;;16.39;75.88;100452.22;5050534;28;20289;-79
2021/08/15 03:45:15;;;;;;;6.80;6.10;;;;;;;16.36;76.29;100428.63;5051130;28;20601;-80
2021/08/15 03:47:41;;;;;;;7.23;6.53;;;;;;;16.34;75.63;100443.66;5050955;28;20215;-80
2021/08/15 03:50:09;;;;;;;6.80;6.20;;;;;;;16.27;75.75;100443.06;5051436;28;20211;-80
2021/08/15 03:52:38;;;;;;;6.23;5.70;;;;;;;16.23;76.15;100427.44;5050192;28;20280;-79
2021/08/15 03:55:07;;;;;;;6.67;5.93;;;;;;;16.20;76.32;100422.31;5050888;28;20280;-79
2021/08/15 03:57:33;;;;;;;7.17;5.87;;;;;;;16.17;76.74;100409.25;5051465;28;20213;-80
2021/08/15 04:00:00;;;;;;;6.20;5.60;;;;;;;16.17;76.31;100417.16;5051862;28;20732;-80
2021/08/15 04:02:28;;;;;;;6.80;5.77;;;;;;;16.17;76.85;100402.22;5051040;28;20245;-79
2021/08/15 04:04:54;;;;;;;6.67;6.00;;;;;;;16.14;77.15;100389.19;5051020;28;20205;-80
2021/08/15 04:07:20;;;;;;;6.30;5.70;;;;;;;16.17;77.50;100372.41;5051597;28;20668;-80
2021/08/15 04:09:47;;;;;;;6.73;5.47;;;;;;;16.17;77.99;100359.22;5051001;28;20258;-79
2021/08/15 04:12:13;;;;;;;6.50;5.90;;;;;;;16.18;78.64;100339.88;5051936;28;20210;-79
2021/08/15 04:14:40;;;;;;;6.43;5.83;;;;;;;16.15;78.42;100350.53;5051929;28;20288;-79
2021/08/15 04:17:06;;;;;;;7.20;6.20;;;;;;;16.12;78.20;100348.91;5051202;28;20208;-79
2021/08/15 04:19:34;;;;;;;7.80;6.83;;;;;;;16.10;77.57;100392.88;5051756;28;20241;-80
2021/08/15 04:22:01;;;;;;;10.53;6.73;;;;;;;16.09;77.59;100391.16;5050180;28;20337;-80
2021/08/15 04:24:27;;;;;;;7.80;7.00;;;;;;;16.03;78.01;100370.34;5050971;28;20625;-80
2021/08/15 04:26:53;;;;;;;7.13;6.43;;;;;;;16.08;78.21;100340.28;5051465;28;20276;-79
2021/08/15 04:29:20;;;;;;;7.63;6.17;;;;;;;16.13;78.88;100321.63;5052012;28;20204;-81
2021/08/15 04:31:46;;;;;;;8.13;6.43;;;;;;;16.22;79.33;100307.22;5051279;28;20217;-80
2021/08/15 04:34:13;;;;;;;7.87;6.50;;;;;;;16.22;79.95;100294.06;5050716;28;20233;-79
2021/08/15 04:36:40;;;;;;;8.90;6.60;;;;;;;16.24;78.71;100322.03;5051081;28;20257;-80
2021/08/15 04:39:07;;;;;;;7.30;6.60;;;;;;;16.21;77.58;100364.31;5051358;28;20206;-80
2021/08/15 04:41:33;;;;;;;8.57;7.70;;;;;;;16.15;77.74;100369.81;5051676;28;20239;-80
2021/08/15 04:44:00;;;;;;;11.07;7.83;;;;;;;16.17;76.98;100359.22;5051694;28;20226;-80
2021/08/15 04:46:26;;;;;;;8.10;5.90;;;;;;;16.18;77.69;100327.56;5051652;28;20236;-80
2021/08/15 04:48:53;;;;;;;7.80;6.37;;;;;;;16.19;78.53;100291.53;5050834;28;20211;-79
2021/08/15 04:51:19;;;;;;;7.17;6.37;;;;;;;16.23;79.82;100254.47;5051374;28;21178;-79
2021/08/15 04:53:47;;;;;;;8.57;7.10;;;;;;;16.32;79.84;100245.28;5050678;28;20231;-80
2021/08/15 04:56:13;;;;;;;9.00;7.40;;;;;;;16.38;79.80;100246.78;5051007;28;20233;-79
2021/08/15 04:58:40;;;;;;;10.00;7.90;;;;;;;16.41;80.60;100223.81;5050458;28;20210;-80
2021/08/15 05:01:07;;;;;;;9.10;8.30;;;;;;;16.52;80.15;100236.47;5051565;28;20275;-79
2021/08/15 05:03:34;;;;;;;12.07;8.20;;;;;;;16.55;80.24;100240.72;5051020;28;20273;-79
2021/08/15 05:06:02;;;;;;;11.20;7.90;;;;;;;16.62;79.71;100250.06;5056445;28;20219;-79
2021/08/15 05:08:29;;;;;;;12.77;7.63;;;;;;;16.68;80.10;100244.50;5057520;28;20208;-80
2021/08/15 05:10:58;;;;;;;10.20;7.80;;;;;;;16.75;79.86;100247.69;5057833;28;20211;-80
2021/08/15 05:13:25;;;;;;;15.73;8.13;;;;;;;16.70;80.19;100247.91;5055817;28;20262;-80
2021/08/15 05:15:51;;;;;;;12.17;8.50;;;;;;;16.80;80.10;100243.91;5057044;28;20265;-81
2021/08/15 05:18:17;;;;;;;11.90;8.30;;;;;;;16.87;79.81;100244.53;5056371;28;20205;-80
2021/08/15 05:20:44;;;;;;;9.30;7.10;;;;;;;16.93;79.75;100249.50;5057590;28;20238;-79
2021/08/15 05:23:11;;;;;;;8.37;7.37;;;;;;;16.99;79.29;100258.91;5057592;28;20246;-79
2021/08/15 05:25:38;;;;;;;8.33;7.50;;;;;;;17.05;79.78;100254.16;5057169;28;20214;-80
2021/08/15 05:28:07;;;;;;;9.90;7.67;;;;;;;17.10;79.91;100253.94;5057312;28;20676;-81
2021/08/15 05:30:34;;;;;;;11.40;6.97;;;;;;;17.13;79.03;100279.31;5057134;28;20678;-80
2021/08/15 05:33:00;;;;;;;12.93;7.77;;;;;;;17.17;79.18;100275.59;5056904;28;20231;-79
2021/08/15 05:35:27;;;;;;;8.43;7.37;;;;;;;17.21;79.50;100264.81;5057047;28;20238;-80
2021/08/15 05:37:53;;;;;;;9.23;7.50;;;;;;;17.26;78.27;100290.97;5057383;28;20577;-79
2021/08/15 05:40:19;;;;;;;9.17;7.60;;;;;;;17.35;77.85;100319.53;5057097;28;20692;-80
2021/08/15 05:42:46;;;;;;;10.93;8.10;;;;;;;17.27;78.02;100326.97;5056751;28;20717;-80
2021/08/15 05:45:14;;;;;;;9.23;7.50;;;;;;;17.39;78.33;100322.88;5057480;28;20229;-80
2021/08/15 05:47:42;;;;;;;8.63;7.10;;;;;;;17.43;77.55;100338.47;5056303;28;20212;-79
2021/08/15 05:50:10;;;;;;;11.00;7.13;;;;;;;17.47;77.27;100347.97;5056429;28;20208;-79
2021/08/15 05:52:37;;;;;;;12.93;8.00;;;;;;;17.43;77.12;100351.69;5056091;28;20219;-81
2021/08/15 05:55:05;;;;;;;12.27;8.20;;;;;;;17.50;77.30;100348.75;5055730;28;20239;-81
2021/08/15 05:57:31;;;;;;;9.97;7.80;;;;;;;17.55;77.11;100355.50;5057356;28;20667;-80
2021/08/15 05:59:57;;;;;;;12.20;7.40;;;;;;;17.63;77.11;100357.75;5057110;28;20209;-81
2021/08/15 06:02:25;;;;;;;8.10;7.03;;;;;;;17.65;78.25;100333.00;5055548;28;20216;-80
2021/08/15 06:04:52;;;;;;;10.27;8.43;;;;;;;17.70;77.80;100345.09;5056945;28;20251;-80
2021/08/15 06:07:18;;;;;;;8.23;7.23;;;;;;;17.77;77.12;100371.13;5057849;28;20221;-81
2021/08/15 06:09:44;;;;;;;8.43;7.63;;;;;;;17.75;76.72;100380.06;5057340;28;20450;-80
2021/08/15 06:12:11;;;;;;;7.97;7.13;;;;;;;17.77;76.98;100370.28;5057159;28;21055;-81
2021/08/15 06:14:37;;;;;;;8.60;7.40;;;;;;;17.82;77.31;100358.56;5056650;28;20235;-80
2021/08/15 06:17:04;;;;;;;11.63;7.57;;;;;;;17.89;77.16;100371.50;5053111;28;20274;-81
2021/08/15 06:19:32;;;;;;;10.70;8.03;;;;;;;17.94;76.76;100372.09;5053709;28;20614;-80
2021/08/15 06:21:58;;;;;;;9.30;7.10;;;;;;;17.98;76.43;100371.03;5052916;28;20689;-81
2021/08/15 06:24:25;;;;;;;14.13;7.80;;;;;;;17.99;76.54;100381.50;5053187;28;20245;-80
2021/08/15 06:26:52;;;;;;;8.20;6.87;;;;;;;18.03;75.55;100398.03;5053260;28;20679;-80
2021/08/15 06:29:18;;;;;;;10.13;7.60;;;;;;;18.01;75.49;100413.13;5053952;28;20216;-80
2021/08/15 06:31:44;;;;;;;8.97;7.33;;;;;;;18.12;75.86;100394.94;5053213;28;20261;-80
2021/08/15 06:34:11;;;;;;;8.40;7.60;;;;;;;18.20;75.39;100413.91;5053107;28;20749;-81
2021/08/15 06:36:39;;;;;;;8.10;7.23;;;;;;;18.19;75.86;100409.53;5053135;28;20736;-81
2021/08/15 06:39:06;;;;;;;10.07;7.73;;;;;;;18.30;75.06;100431.94;5054476;28;20208;-81
2021/08/15 06:41:33;;;;;;;11.50;9.00;;;;;;;18.39;74.10;100455.22;5053712;28;20231;-82
2021/08/15 06:43:59;;;;;;;14.40;7.33;;;;;;;18.48;74.35;100453.91;5052664;28;20278;-81
2021/08/15 06:46:26;;;;;;;11.13;7.47;;;;;;;18.57;74.05;100461.34;5053981;28;20266;-81
2021/08/15 06:48:52;;;;;;;8.63;7.40;;;;;;;18.56;73.96;100471.09;5053897;28;20221;-82
2021/08/15 06:51:18;;;;;;;9.97;7.17;;;;;;;18.72;74.76;100428.84;5053938;28;20204;-83
2021/08/15 06:53:46;;;;;;;9.83;7.50;;;;;;;18.85;73.15;100485.47;5054110;28;20236;-81
2021/08/15 06:56:13;;;;;;;9.07;7.87;;;;;;;19.00;72.36;100502.31;5053824;28;20235;-82
2021/08/15 06:58:40;;;;;;;10.13;7.30;;;;;;;19.13;72.13;100530.78;5052599;28;20682;-81
2021/08/15 07:01:06;;;;;;;13.13;7.30;;;;;;;19.18;71.63;100557.84;5053105;28;20209;-80
2021/08/15 07:03:33;;;;;;;12.83;7.53;;;;;;;19.13;70.48;100583.72;5053331;28;20229;-81
2021/08/15 07:05:59;;;;;;;10.13;7.17;;;;;;;19.12;69.92;100596.06;5052286;28;20208;-82
2021/08/15 07:08:25;;;;;;;17.90;7.13;;;;;;;19.20;70.78;100567.41;5053298;28;20278;-83
2021/08/15 07:10:53;;;;;;;11.80;7.67;;;;;;;19.31;70.81;100558.91;5053571;28;20209;-82
2021/08/15 07:13:22;;;;;;;11.50;7.63;;;;;;;19.37;70.64;100563.88;5051654;28;20307;-78
2021/08/15 07:15:49;;;;;;;9.43;6.93;;;;;;;19.50;70.59;100574.63;5052652;28;20236;-82
2021/08/15 07:18:15;;;;;;;8.07;7.27;;;;;;;19.53;69.77;100597.47;5052712;28;20209;-81
2021/08/15 07:20:42;;;;;;;11.07;7.70;;;;;;;19.64;70.19;100584.47;5052415;28;20231;-81
2021/08/15 07:23:08;;;;;;;10.43;7.53;;;;;;;19.65;69.16;100631.22;5053637;28;20282;-80
2021/08/15 07:25:35;;;;;;;8.20;7.33;;;;;;;19.77;69.65;100606.75;5053816;28;20376;-83
2021/08/15 07:28:03;;;;;;;10.57;7.57;;;;;;;19.90;69.94;100584.88;5051354;28;20678;-83
2021/08/15 07:30:30;;;;;;;8.70;7.50;;;;;;;19.84;68.75;100626.69;5052215;28;20213;-81
2021/08/15 07:32:58;;;;;;;13.63;8.10;;;;;;;19.81;69.17;100634.78;5052751;28;20225;-81
2021/08/15 07:35:26;;;;;;;11.07;7.87;;;;;;;19.92;69.41;100606.84;5052860;28;20710;-81
2021/08/15 07:37:52;;;;;;;8.63;7.80;;;;;;;20.01;70.21;100572.75;5052906;28;20752;-81
2021/08/15 07:40:19;;;;;;;12.23;8.43;;;;;;;19.86;69.51;100610.72;5053580;28;20307;-80
2021/08/15 07:42:46;;;;;;;10.53;8.13;;;;;;;20.01;69.23;100607.19;5052176;28;20239;-81
2021/08/15 07:45:14;;;;;;;9.20;7.70;;;;;;;19.96;68.69;100634.88;5053135;28;20204;-81
2021/08/15 07:47:41;;;;;;;11.27;8.40;;;;;;;20.02;68.80;100616.00;5052857;28;20213;-83
2021/08/15 07:50:08;;;;;;;14.13;8.70;;;;;;;20.12;68.42;100626.94;5053040;28;20263;-81
2021/08/15 07:52:34;;;;;;;10.30;8.50;;;;;;;20.11;67.91;100649.09;5052560;28;20235;-81
2021/08/15 07:55:01;;;;;;;14.30;9.90;;;;;;;20.13;67.70;100666.59;5052683;28;20227;-84
2021/08/15 07:57:30;;;;;;;13.43;9.23;;;;;;;20.01;67.51;100681.38;5052539;28;20228;-82
2021/08/15 07:59:57;;;;;;;14.43;9.37;;;;;;;20.03;67.60;100682.16;5052855;28;20579;-81
2021/08/15 08:02:25;;;;;;;12.97;10.13;;;;;;;20.11;67.84;100672.94;5053662;28;20243;-82
2021/08/15 08:04:51;;;;;;;11.27;9.20;;;;;;;20.14;68.17;100656.88;5053193;28;20206;-83
2021/08/15 08:07:19;;;;;;;9.93;8.83;;;;;;;20.07;67.61;100672.25;5053050;28;20575;-81
2021/08/15 08:09:46;;;;;;;11.70;10.53;;;;;;;20.05;67.38;100679.44;5053238;28;20209;-84
2021/08/15 08:12:12;;;;;;;11.17;9.07;;;;;;;20.17;67.54;100678.75;5053226;28;20696;-82
2021/08/15 08:14:39;;;;;;;13.47;8.90;;;;;;;20.25;66.87;100694.22;5052479;28;20239;-83
2021/08/15 08:17:05;;;;;;;11.80;9.10;;;;;;;20.32;67.90;100678.88;5053084;28;20205;-83
2021/08/15 08:19:33;;;;;;;10.10;8.90;;;;;;;20.28;66.85;100704.69;5053444;28;20254;-82
2021/08/15 08:21:59;;;;;;;11.07;8.37;;;;;;;20.28;66.95;100709.09;5053018;28;20202;-81
2021/08/15 08:24:26;;;;;;;11.57;9.10;;;;;;;20.39;67.23;100685.50;5052735;28;20279;-81
2021/08/15 08:26:52;;;;;;;10.43;9.17;;;;;;;20.44;67.68;100692.28;5052432;28;20243;-82
2021/08/15 08:29:19;;;;;;;10.60;9.50;;;;;;;20.49;67.06;100680.53;5051635;28;20263;-80
2021/08/15 08:31:45;;;;;;;10.03;9.13;;;;;;;20.44;66.04;100724.09;5051179;28;20202;-82
2021/08/15 08:34:12;;;;;;;10.67;9.07;;;;;;;20.54;66.37;100705.03;5052458;28;20693;-82
2021/08/15 08:36:40;;;;;;;10.37;9.27;;;;;;;20.60;66.61;100691.44;5052139;28;20618;-82
2021/08/15 08:39:06;;;;;;;9.83;8.70;;;;;;;20.65;67.33;100654.03;5051517;28;20283;-82
2021/08/15 08:41:33;;;;;;;10.07;9.07;;;;;;;20.66;66.50;100692.91;5051113;28;20271;-82
2021/08/15 08:44:01;;;;;;;12.37;9.67;;;;;;;20.72;66.74;100682.78;5051786;28;20232;-81
2021/08/15 08:46:28;;;;;;;12.17;9.93;;;;;;;20.73;66.63;100688.94;5053460;28;20268;-83
2021/08/15 08:48:55;;;;;;;11.10;9.97;;;;;;;20.61;67.29;100663.97;5052132;28;20204;-82
2021/08/15 08:51:22;;;;;;;11.57;10.10;;;;;;;20.69;66.98;100659.06;5052862;28;20205;-82
2021/08/15 08:53:51;;;;;;;12.33;10.93;;;;;;;20.48;66.39;100702.72;5054414;28;20708;-82
2021/08/15 08:56:18;;;;;;;12.47;9.97;;;;;;;20.53;67.07;100663.53;5052888;28;20235;-82
2021/08/15 08:58:44;;;;;;;14.07;10.60;;;;;;;20.63;67.83;100630.25;5052212;28;20200;-81
2021/08/15 09:01:11;;;;;;;12.23;10.13;;;;;;;20.82;66.63;100667.19;5053182;28;20216;-82
2021/08/15 09:03:40;;;;;;;11.30;10.23;;;;;;;20.94;65.40;100716.03;5053106;28;20221;-81
2021/08/15 09:06:18;;;;;;;12.87;10.10;;;;;;;21.10;65.03;100723.97;5053066;28;20205;-81
2021/08/15 09:08:45;;;;;;;14.00;10.50;;;;;;;21.21;65.18;100698.50;5052883;28;20274;-81
2021/08/15 09:11:15;;;;;;;11.80;10.60;;;;;;;21.17;64.31;100749.22;5053978;28;20643;-82
2021/08/15 09:13:43;;;;;;;13.60;10.10;;;;;;;21.32;65.68;100703.16;5053845;28;20722;-80
2021/08/15 09:16:09;;;;;;;13.13;10.40;;;;;;;21.43;64.40;100739.75;5055484;28;20295;-79
2021/08/15 09:18:35;;;;;;;11.97;10.77;;;;;;;21.47;63.16;100785.56;5055111;28;20205;-79
2021/08/15 09:21:02;;;;;;;10.63;9.63;;;;;;;21.44;62.25;100791.91;5054752;28;20239;-79
2021/08/15 09:23:30;;;;;;;11.90;9.63;;;;;;;21.23;62.82;100802.81;5054896;28;20258;-79
2021/08/15 09:26:19;;;;;;;9.37;8.50;;;;;;;21.07;62.47;100811.72;5055630;28;20216;-79
2021/08/15 09:28:47;;;;;;;10.20;8.30;;;;;;;21.11;63.17;100786.72;5054578;28;20228;-79
2021/08/15 09:31:19;;;;;;;10.17;8.37;;;;;;;21.19;62.37;100790.66;5054617;28;20211;-79
2021/08/15 09:33:46;;;;;;;7.77;6.93;;;;;;;21.27;61.50;100822.09;5052982;28;20239;-80
2021/08/15 09:36:13;;;;;;;9.03;8.13;;;;;;;21.40;61.01;100824.88;5054145;28;20229;-79
2021/08/15 09:38:44;;;;;;;11.83;8.30;;;;;;;21.58;61.58;100820.31;5054671;28;20287;-80
2021/08/15 09:41:25;;;;;;;8.17;7.33;;;;;;;21.54;60.88;100850.66;5054951;28;20299;-80
2021/08/15 09:44:17;;;;;;;9.90;8.90;;;;;;;21.49;60.10;100874.00;5054201;28;20236;-80
2021/08/15 09:47:02;;;;;;;5.53;4.93;;;;;;;21.59;59.28;100907.06;5054555;28;20284;-81
2021/08/15 09:49:33;;;;;;;6.63;4.83;;;;;;;21.69;59.73;100899.41;5052118;28;21037;-79
2021/08/15 09:52:12;;;;;;;7.17;6.57;;;;;;;21.80;59.75;100886.31;5052444;28;20237;-79
2021/08/15 09:54:39;;;;;;;7.93;6.30;;;;;;;21.80;59.11;100916.44;5054089;28;20255;-79
2021/08/15 09:57:28;;;;;;;9.27;7.50;;;;;;;21.86;60.25;100861.19;5055411;28;20623;-79
2021/08/15 09:59:54;;;;;;;10.00;7.63;;;;;;;22.01;59.43;100892.19;5055899;28;20216;-79
2021/08/15 10:02:21;;;;;;;7.90;6.87;;;;;;;22.12;58.99;100918.13;5053312;28;20266;-81
2021/08/15 10:04:48;;;;;;;6.83;6.13;;;;;;;22.13;58.78;100920.69;5054693;28;20233;-80
2021/08/15 10:07:14;;;;;;;5.97;5.47;;;;;;;22.21;58.12;100941.50;5047291;28;20617;-80
2021/08/15 10:09:41;;;;;;;7.03;6.33;;;;;;;22.27;57.62;100954.47;5037107;28;20210;-80
2021/08/15 10:12:08;;;;;;;5.97;5.37;;;;;;;22.39;58.21;100936.94;5048580;28;20209;-80
2021/08/15 10:14:37;;;;;;;6.17;5.13;;;;;;;22.57;58.80;100903.00;5062400;28;20225;-79
2021/08/15 10:17:05;;;;;;;5.93;4.97;;;;;;;22.64;56.73;100994.84;5060453;28;20207;-80
2021/08/15 10:19:36;;;;;;;7.07;5.30;;;;;;;22.79;56.88;100985.94;5056265;28;20261;-80
2021/08/15 10:22:03;;;;;;;5.20;4.70;;;;;;;22.99;58.52;100910.13;5053873;28;20185;-80
2021/08/15 10:24:47;;;;;;;5.03;4.63;;;;;;;23.12;56.25;101007.91;5036312;28;20230;-80
2021/08/15 10:27:46;;;;;;;4.90;4.40;;;;;;;23.02;56.40;101007.63;5036438;28;20187;-80
2021/08/15 10:30:46;;;;;;;5.60;5.00;;;;;;;23.11;55.68;101011.50;5036598;28;20745;-80
2021/08/15 10:33:24;;;;;;;5.93;5.33;;;;;;;23.08;54.83;101062.31;5037925;28;20230;-80
2021/08/15 10:36:28;;;;;;;6.47;5.30;;;;;;;23.28;54.22;101016.66;5055934;28;20251;-80
2021/08/15 10:38:57;;;;;;;4.90;4.37;;;;;;;23.22;53.90;101082.78;5048459;28;20203;-80
2021/08/15 10:41:53;;;;;;;4.23;3.93;;;;;;;23.27;53.04;101096.66;5055839;28;20217;-80
2021/08/15 10:44:21;;;;;;;4.67;4.27;;;;;;;23.30;53.46;101092.00;5055100;28;20236;-81
2021/08/15 10:47:15;;;;;;;8.37;4.80;;;;;;;23.45;54.72;101002.25;5055359;28;20216;-80
2021/08/15 10:49:56;;;;;;;4.87;3.83;;;;;;;23.56;53.79;101074.38;5056065;28;20611;-81
2021/08/15 10:52:31;;;;;;;5.70;4.07;;;;;;;23.63;52.62;101120.16;5044715;28;20198;-80
2021/08/15 10:55:02;;;;;;;4.20;3.80;;;;;;;23.75;52.24;101129.19;5041968;28;20206;-80
2021/08/15 10:57:36;;;;;;;4.93;4.47;;;;;;;23.77;51.56;101167.28;5056132;28;20272;-81
2021/08/15 11:00:04;;;;;;;4.77;4.37;;;;;;;23.77;51.43;101162.84;5056629;28;20188;-80
2021/08/15 11:02:34;;;;;;;5.67;4.43;;;;;;;23.78;52.08;101145.00;5055223;28;20206;-80
2021/08/15 11:05:02;;;;;;;5.83;4.63;;;;;;;23.75;51.87;101145.19;5055637;28;20233;-80
2021/08/15 11:07:36;;;;;;;5.10;4.70;;;;;;;23.82;51.22;101162.53;5048815;28;20615;-81
2021/08/15 11:10:04;;;;;;;5.67;5.03;;;;;;;23.75;50.69;101191.38;5035760;28;20200;-80
2021/08/15 11:12:31;;;;;;;5.60;5.00;;;;;;;23.90;51.60;101149.56;5040431;28;20229;-79
2021/08/15 11:15:08;;;;;;;5.60;5.10;;;;;;;23.88;50.77;101175.47;5047130;28;20656;-78
2021/08/15 11:17:37;;;;;;;5.73;5.23;;;;;;;23.89;51.30;101161.19;5060838;28;20209;-80
2021/08/15 11:20:35;;;;;;;6.87;5.97;;;;;;;23.75;51.61;101151.38;5060362;28;20205;-79
2021/08/15 11:23:12;;;;;;;7.10;6.40;;;;;;;23.94;51.77;101108.44;4994663;28;20270;-78
2021/08/15 11:25:38;;;;;;;7.10;6.50;;;;;;;23.92;52.12;101115.66;5049888;28;20263;-80
2021/08/15 11:28:05;;;;;;;8.67;5.37;;;;;;;23.89;51.40;101133.69;5061466;28;20211;-79